sensor_id;sensor_type;location;lat;lon;timestamp;pressure;altitude;pressure_sealevel;temperature;humidity
77263;BME280;66373;52.334;4.806;2023-06-14T00:01:04;101536.50;;;25.00;43.62
77263;BME280;66373;52.334;4.806;2023-06-14T00:03:32;101533.09;;;24.98;43.29
77263;BME280;66373;52.334;4.806;2023-06-14T00:05:59;101504.03;;;24.78;42.96
77263;BME280;66373;52.334;4.806;2023-06-14T00:08:27;101529.72;;;24.95;43.35
77263;BME280;66373;52.334;4.806;2023-06-14T00:10:54;101518.63;;;24.87;43.01
77263;BME280;66373;52.334;4.806;2023-06-14T00:13:21;101530.63;;;24.94;42.80
77263;BME280;66373;52.334;4.806;2023-06-14T00:15:48;101534.16;;;24.93;42.65
77263;BME280;66373;52.334;4.806;2023-06-14T00:18:20;101532.56;;;24.89;42.53
77263;BME280;66373;52.334;4.806;2023-06-14T00:20:50;101510.50;;;24.69;42.47
77263;BME280;66373;52.334;4.806;2023-06-14T00:23:18;101527.53;;;24.83;42.21
77263;BME280;66373;52.334;4.806;2023-06-14T00:25:45;101532.78;;;24.83;42.32
77263;BME280;66373;52.334;4.806;2023-06-14T00:28:12;101534.50;;;24.84;42.50
77263;BME280;66373;52.334;4.806;2023-06-14T00:30:39;101534.63;;;24.81;41.91
77263;BME280;66373;52.334;4.806;2023-06-14T00:33:06;101537.38;;;24.78;42.16
77263;BME280;66373;52.334;4.806;2023-06-14T00:35:35;101452.56;;;24.26;42.23
77263;BME280;66373;52.334;4.806;2023-06-14T00:38:03;101516.00;;;24.63;41.98
77263;BME280;66373;52.334;4.806;2023-06-14T00:40:31;101531.69;;;24.66;41.56
77263;BME280;66373;52.334;4.806;2023-06-14T00:42:58;101534.16;;;24.69;42.13
77263;BME280;66373;52.334;4.806;2023-06-14T00:45:25;101520.41;;;24.63;41.97
77263;BME280;66373;52.334;4.806;2023-06-14T00:47:52;101526.66;;;24.60;41.74
77263;BME280;66373;52.334;4.806;2023-06-14T00:50:21;101528.25;;;24.64;41.36
77263;BME280;66373;52.334;4.806;2023-06-14T00:52:50;101513.03;;;24.49;41.25
77263;BME280;66373;52.334;4.806;2023-06-14T00:55:18;101533.00;;;24.55;41.32
77263;BME280;66373;52.334;4.806;2023-06-14T00:57:45;101533.00;;;24.55;41.40
77263;BME280;66373;52.334;4.806;2023-06-14T01:00:14;101527.19;;;24.45;40.92
77263;BME280;66373;52.334;4.806;2023-06-14T01:02:41;101534.81;;;24.53;41.34
77263;BME280;66373;52.334;4.806;2023-06-14T01:05:09;101518.41;;;24.46;41.27
77263;BME280;66373;52.334;4.806;2023-06-14T01:07:55;101534.75;;;24.54;41.36
77263;BME280;66373;52.334;4.806;2023-06-14T01:10:34;101517.84;;;24.38;40.94
77263;BME280;66373;52.334;4.806;2023-06-14T01:13:08;101525.47;;;24.44;40.74
77263;BME280;66373;52.334;4.806;2023-06-14T01:15:39;101528.13;;;24.44;40.90
77263;BME280;66373;52.334;4.806;2023-06-14T01:18:08;101514.59;;;24.31;41.10
77263;BME280;66373;52.334;4.806;2023-06-14T01:20:43;101526.75;;;24.34;40.77
77263;BME280;66373;52.334;4.806;2023-06-14T01:23:14;101531.22;;;24.32;41.02
77263;BME280;66373;52.334;4.806;2023-06-14T01:25:42;101514.13;;;24.19;41.03
77263;BME280;66373;52.334;4.806;2023-06-14T01:28:12;101531.44;;;24.26;41.08
77263;BME280;66373;52.334;4.806;2023-06-14T01:30:41;101527.88;;;24.27;41.12
77263;BME280;66373;52.334;4.806;2023-06-14T01:33:12;101527.94;;;24.25;40.88
77263;BME280;66373;52.334;4.806;2023-06-14T01:35:42;101527.16;;;24.22;40.89
77263;BME280;66373;52.334;4.806;2023-06-14T01:38:09;101535.03;;;24.22;41.07
77263;BME280;66373;52.334;4.806;2023-06-14T01:40:39;101533.31;;;24.21;41.00
77263;BME280;66373;52.334;4.806;2023-06-14T01:43:06;101532.72;;;24.14;41.08
77263;BME280;66373;52.334;4.806;2023-06-14T01:45:36;101542.38;;;24.14;41.03
77263;BME280;66373;52.334;4.806;2023-06-14T01:48:05;101538.94;;;24.12;41.07
77263;BME280;66373;52.334;4.806;2023-06-14T01:50:35;101531.25;;;24.06;41.23
77263;BME280;66373;52.334;4.806;2023-06-14T01:53:05;101533.13;;;24.02;41.47
77263;BME280;66373;52.334;4.806;2023-06-14T01:55:35;101536.63;;;24.02;41.12
77263;BME280;66373;52.334;4.806;2023-06-14T01:58:07;101527.97;;;23.99;41.36
77263;BME280;66373;52.334;4.806;2023-06-14T02:00:34;101535.00;;;23.98;41.16
77263;BME280;66373;52.334;4.806;2023-06-14T02:03:02;101534.31;;;23.93;41.25
77263;BME280;66373;52.334;4.806;2023-06-14T02:05:29;101542.25;;;23.92;41.30
77263;BME280;66373;52.334;4.806;2023-06-14T02:07:57;101528.44;;;23.87;41.40
77263;BME280;66373;52.334;4.806;2023-06-14T02:10:30;101522.53;;;23.80;41.39
77263;BME280;66373;52.334;4.806;2023-06-14T02:12:57;101535.44;;;23.86;41.56
77263;BME280;66373;52.334;4.806;2023-06-14T02:15:26;101534.66;;;23.84;41.56
77263;BME280;66373;52.334;4.806;2023-06-14T02:18:00;101533.78;;;23.84;41.42
77263;BME280;66373;52.334;4.806;2023-06-14T02:20:28;101524.13;;;23.84;41.38
77263;BME280;66373;52.334;4.806;2023-06-14T02:22:56;101501.91;;;23.68;40.68
77263;BME280;66373;52.334;4.806;2023-06-14T02:25:24;101520.91;;;23.76;40.87
77263;BME280;66373;52.334;4.806;2023-06-14T02:27:53;101529.38;;;23.84;41.34
77263;BME280;66373;52.334;4.806;2023-06-14T02:30:23;101527.66;;;23.83;41.08
77263;BME280;66373;52.334;4.806;2023-06-14T02:32:57;101526.88;;;23.81;40.95
77263;BME280;66373;52.334;4.806;2023-06-14T02:37:52;101527.13;;;23.74;40.82
77263;BME280;66373;52.334;4.806;2023-06-14T02:40:22;101528.06;;;23.71;40.77
77263;BME280;66373;52.334;4.806;2023-06-14T02:42:49;101525.50;;;23.69;40.98
77263;BME280;66373;52.334;4.806;2023-06-14T02:45:17;101529.88;;;23.69;40.70
77263;BME280;66373;52.334;4.806;2023-06-14T02:47:44;101515.28;;;23.62;40.51
77263;BME280;66373;52.334;4.806;2023-06-14T02:50:13;101521.34;;;23.64;40.63
77263;BME280;66373;52.334;4.806;2023-06-14T02:52:41;101524.91;;;23.61;40.67
77263;BME280;66373;52.334;4.806;2023-06-14T02:55:10;101518.97;;;23.56;40.16
77263;BME280;66373;52.334;4.806;2023-06-14T02:57:37;101529.31;;;23.61;40.45
77263;BME280;66373;52.334;4.806;2023-06-14T03:00:09;101513.09;;;23.47;40.66
77263;BME280;66373;52.334;4.806;2023-06-14T03:02:40;101541.31;;;23.68;40.73
77263;BME280;66373;52.334;4.806;2023-06-14T03:05:11;101534.63;;;23.59;40.93
77263;BME280;66373;52.334;4.806;2023-06-14T03:07:40;101533.84;;;23.56;40.57
77263;BME280;66373;52.334;4.806;2023-06-14T03:10:11;101547.59;;;23.64;40.33
77263;BME280;66373;52.334;4.806;2023-06-14T03:12:40;101549.41;;;23.62;40.29
77263;BME280;66373;52.334;4.806;2023-06-14T03:15:10;101540.78;;;23.58;40.42
77263;BME280;66373;52.334;4.806;2023-06-14T03:17:41;101554.53;;;23.65;39.59
77263;BME280;66373;52.334;4.806;2023-06-14T03:20:12;101543.56;;;23.54;39.80
77263;BME280;66373;52.334;4.806;2023-06-14T03:22:43;101559.13;;;23.60;39.78
77263;BME280;66373;52.334;4.806;2023-06-14T03:25:12;101566.28;;;23.55;39.95
77263;BME280;66373;52.334;4.806;2023-06-14T03:27:40;101571.53;;;23.55;40.24
77263;BME280;66373;52.334;4.806;2023-06-14T03:30:08;101574.16;;;23.55;39.86
77263;BME280;66373;52.334;4.806;2023-06-14T03:32:36;101569.06;;;23.49;39.73
77263;BME280;66373;52.334;4.806;2023-06-14T03:35:05;101576.13;;;23.47;39.95
77263;BME280;66373;52.334;4.806;2023-06-14T03:37:33;101585.69;;;23.49;40.03
77263;BME280;66373;52.334;4.806;2023-06-14T03:40:02;101585.81;;;23.45;39.76
77263;BME280;66373;52.334;4.806;2023-06-14T03:42:37;101581.56;;;23.41;40.01
77263;BME280;66373;52.334;4.806;2023-06-14T03:45:06;101569.56;;;23.33;40.02
77263;BME280;66373;52.334;4.806;2023-06-14T03:47:34;101580.88;;;23.35;39.75
77263;BME280;66373;52.334;4.806;2023-06-14T03:50:01;101560.41;;;23.19;39.96
77263;BME280;66373;52.334;4.806;2023-06-14T03:52:29;101568.91;;;23.27;39.88
77263;BME280;66373;52.334;4.806;2023-06-14T03:54:57;101569.84;;;23.24;39.89
77263;BME280;66373;52.334;4.806;2023-06-14T03:57:27;101585.31;;;23.33;39.83
77263;BME280;66373;52.334;4.806;2023-06-14T03:59:55;101590.72;;;23.29;39.91
77263;BME280;66373;52.334;4.806;2023-06-14T04:02:23;101584.75;;;23.24;39.92
77263;BME280;66373;52.334;4.806;2023-06-14T04:04:50;101583.97;;;23.20;39.97
77263;BME280;66373;52.334;4.806;2023-06-14T04:07:20;101591.88;;;23.19;40.14
77263;BME280;66373;52.334;4.806;2023-06-14T04:09:47;101596.09;;;23.24;40.08
77263;BME280;66373;52.334;4.806;2023-06-14T04:12:14;101595.31;;;23.21;40.43
77263;BME280;66373;52.334;4.806;2023-06-14T04:14:43;101603.16;;;23.22;40.33
77263;BME280;66373;52.334;4.806;2023-06-14T04:17:11;101604.03;;;23.23;40.53
77263;BME280;66373;52.334;4.806;2023-06-14T04:19:42;101604.03;;;23.23;40.47
77263;BME280;66373;52.334;4.806;2023-06-14T04:22:10;101591.88;;;23.19;40.45
77263;BME280;66373;52.334;4.806;2023-06-14T04:24:38;101613.56;;;23.25;40.28
77263;BME280;66373;52.334;4.806;2023-06-14T04:27:08;101610.94;;;23.25;40.56
77263;BME280;66373;52.334;4.806;2023-06-14T04:29:37;101599.81;;;23.17;40.26
77263;BME280;66373;52.334;4.806;2023-06-14T04:32:10;101612.75;;;23.23;40.30
77263;BME280;66373;52.334;4.806;2023-06-14T04:34:39;101615.47;;;23.20;40.36
77263;BME280;66373;52.334;4.806;2023-06-14T04:37:08;101613.75;;;23.19;40.26
77263;BME280;66373;52.334;4.806;2023-06-14T04:39:38;101603.44;;;23.13;40.58
77263;BME280;66373;52.334;4.806;2023-06-14T04:42:05;101607.72;;;23.16;40.64
77263;BME280;66373;52.334;4.806;2023-06-14T04:44:33;101605.06;;;23.17;40.68
77263;BME280;66373;52.334;4.806;2023-06-14T04:47:03;101605.16;;;23.14;40.22
77263;BME280;66373;52.334;4.806;2023-06-14T04:49:33;101606.88;;;23.15;40.63
77263;BME280;66373;52.334;4.806;2023-06-14T04:52:01;101612.66;;;23.26;40.58
77263;BME280;66373;52.334;4.806;2023-06-14T04:54:33;101609.28;;;23.23;40.48
77263;BME280;66373;52.334;4.806;2023-06-14T04:57:04;101577.31;;;23.10;40.42
77263;BME280;66373;52.334;4.806;2023-06-14T04:59:31;101602.34;;;23.20;40.36
77263;BME280;66373;52.334;4.806;2023-06-14T05:02:01;101619.75;;;23.23;40.57
77263;BME280;66373;52.334;4.806;2023-06-14T05:04:30;101564.00;;;22.87;40.66
77263;BME280;66373;52.334;4.806;2023-06-14T05:07:00;101619.00;;;23.19;40.58
77263;BME280;66373;52.334;4.806;2023-06-14T05:09:32;101569.34;;;22.84;40.54
77263;BME280;66373;52.334;4.806;2023-06-14T05:11:59;101622.53;;;23.18;40.71
77263;BME280;66373;52.334;4.806;2023-06-14T05:14:27;101615.50;;;23.19;40.69
77263;BME280;66373;52.334;4.806;2023-06-14T05:16:55;101622.53;;;23.18;40.83
77263;BME280;66373;52.334;4.806;2023-06-14T05:19:23;101595.81;;;23.06;41.07
77263;BME280;66373;52.334;4.806;2023-06-14T05:21:50;101635.66;;;23.18;41.12
77263;BME280;66373;52.334;4.806;2023-06-14T05:24:21;101612.41;;;23.06;40.96
77263;BME280;66373;52.334;4.806;2023-06-14T05:26:48;101607.25;;;23.03;40.88
77263;BME280;66373;52.334;4.806;2023-06-14T05:29:15;101628.06;;;23.09;41.18
77263;BME280;66373;52.334;4.806;2023-06-14T05:31:42;101631.31;;;23.17;41.06
77263;BME280;66373;52.334;4.806;2023-06-14T05:34:10;101634.75;;;23.19;41.03
77263;BME280;66373;52.334;4.806;2023-06-14T05:36:37;101631.31;;;23.17;40.97
77263;BME280;66373;52.334;4.806;2023-06-14T05:39:04;101632.22;;;23.16;41.17
77263;BME280;66373;52.334;4.806;2023-06-14T05:41:34;101633.88;;;23.19;41.17
77263;BME280;66373;52.334;4.806;2023-06-14T05:44:01;101636.47;;;23.20;41.03
77263;BME280;66373;52.334;4.806;2023-06-14T05:46:31;101632.84;;;23.24;40.94
77263;BME280;66373;52.334;4.806;2023-06-14T05:48:58;101618.91;;;23.22;40.71
77263;BME280;66373;52.334;4.806;2023-06-14T05:51:25;101638.97;;;23.25;40.90
77263;BME280;66373;52.334;4.806;2023-06-14T05:53:52;101637.38;;;23.19;40.82
77263;BME280;66373;52.334;4.806;2023-06-14T05:56:20;101644.06;;;23.29;40.80
77263;BME280;66373;52.334;4.806;2023-06-14T05:58:49;101626.88;;;23.19;41.01
77263;BME280;66373;52.334;4.806;2023-06-14T06:01:16;101651.09;;;23.29;40.96
77263;BME280;66373;52.334;4.806;2023-06-14T06:03:43;101659.00;;;23.27;40.82
77263;BME280;66373;52.334;4.806;2023-06-14T06:06:12;101660.63;;;23.61;40.49
77263;BME280;66373;52.334;4.806;2023-06-14T06:08:39;101656.78;;;23.71;40.30
77263;BME280;66373;52.334;4.806;2023-06-14T06:11:06;101619.97;;;23.45;40.56
77263;BME280;66373;52.334;4.806;2023-06-14T06:13:33;101638.19;;;23.49;40.65
77263;BME280;66373;52.334;4.806;2023-06-14T06:16:02;101653.72;;;23.58;40.69
77263;BME280;66373;52.334;4.806;2023-06-14T06:18:29;101654.75;;;23.53;40.70
77263;BME280;66373;52.334;4.806;2023-06-14T06:20:56;101660.00;;;23.53;40.70
77263;BME280;66373;52.334;4.806;2023-06-14T06:23:23;101665.16;;;23.56;40.69
77263;BME280;66373;52.334;4.806;2023-06-14T06:25:50;101652.22;;;23.48;40.48
77263;BME280;66373;52.334;4.806;2023-06-14T06:28:18;101662.66;;;23.51;40.53
77263;BME280;66373;52.334;4.806;2023-06-14T06:30:46;101658.34;;;23.49;40.51
77263;BME280;66373;52.334;4.806;2023-06-14T06:33:14;101663.41;;;23.56;40.56
77263;BME280;66373;52.334;4.806;2023-06-14T06:35:42;101653.91;;;23.51;40.19
77263;BME280;66373;52.334;4.806;2023-06-14T06:38:09;101660.00;;;23.53;40.35
77263;BME280;66373;52.334;4.806;2023-06-14T06:40:36;101659.16;;;23.52;40.10
77263;BME280;66373;52.334;4.806;2023-06-14T06:43:03;101646.13;;;23.48;40.38
77263;BME280;66373;52.334;4.806;2023-06-14T06:45:37;101656.47;;;23.54;39.90
77263;BME280;66373;52.334;4.806;2023-06-14T06:48:05;101672.69;;;23.66;40.14
77263;BME280;66373;52.334;4.806;2023-06-14T06:50:33;101677.22;;;23.63;40.10
77263;BME280;66373;52.334;4.806;2023-06-14T06:53:01;101649.66;;;23.47;40.06
77263;BME280;66373;52.334;4.806;2023-06-14T06:55:28;101673.47;;;23.70;40.21
77263;BME280;66373;52.334;4.806;2023-06-14T06:57:55;101688.03;;;23.80;39.88
77263;BME280;66373;52.334;4.806;2023-06-14T07:00:22;101684.31;;;23.87;39.72
77263;BME280;66373;52.334;4.806;2023-06-14T07:02:49;101685.41;;;23.80;39.12
77263;BME280;66373;52.334;4.806;2023-06-14T07:05:16;101671.56;;;23.75;39.12
77263;BME280;66373;52.334;4.806;2023-06-14T07:07:45;101699.25;;;23.85;39.35
77263;BME280;66373;52.334;4.806;2023-06-14T07:10:12;101675.00;;;23.77;39.66
77263;BME280;66373;52.334;4.806;2023-06-14T07:12:39;101690.56;;;23.83;39.21
77263;BME280;66373;52.334;4.806;2023-06-14T07:15:07;101703.00;;;23.78;39.01
77263;BME280;66373;52.334;4.806;2023-06-14T07:17:35;101707.16;;;23.85;39.43
77263;BME280;66373;52.334;4.806;2023-06-14T07:20:03;101682.91;;;23.76;39.23
77263;BME280;66373;52.334;4.806;2023-06-14T07:22:34;101707.97;;;23.87;39.29
77263;BME280;66373;52.334;4.806;2023-06-14T07:25:02;101710.41;;;23.92;39.18
77263;BME280;66373;52.334;4.806;2023-06-14T07:27:31;101709.56;;;23.91;39.34
77263;BME280;66373;52.334;4.806;2023-06-14T07:29:58;101705.56;;;23.80;39.15
77263;BME280;66373;52.334;4.806;2023-06-14T07:32:25;101721.06;;;23.89;39.09
77263;BME280;66373;52.334;4.806;2023-06-14T07:34:53;101704.53;;;23.85;39.46
77263;BME280;66373;52.334;4.806;2023-06-14T07:37:20;101717.09;;;24.02;39.26
77263;BME280;66373;52.334;4.806;2023-06-14T07:39:47;101717.69;;;24.12;39.03
77263;BME280;66373;52.334;4.806;2023-06-14T07:42:15;101719.31;;;24.16;38.93
77263;BME280;66373;52.334;4.806;2023-06-14T07:44:42;101708.97;;;24.10;39.15
77263;BME280;66373;52.334;4.806;2023-06-14T07:47:10;101703.91;;;24.03;39.16
77263;BME280;66373;52.334;4.806;2023-06-14T07:49:37;101686.63;;;23.96;38.82
77263;BME280;66373;52.334;4.806;2023-06-14T07:52:05;101723.63;;;24.17;38.85
77263;BME280;66373;52.334;4.806;2023-06-14T07:54:32;101728.19;;;24.12;38.65
77263;BME280;66373;52.334;4.806;2023-06-14T07:56:59;101731.50;;;24.17;39.29
77263;BME280;66373;52.334;4.806;2023-06-14T07:59:28;101736.72;;;24.18;39.03
77263;BME280;66373;52.334;4.806;2023-06-14T08:01:55;101705.75;;;24.01;38.10
77263;BME280;66373;52.334;4.806;2023-06-14T08:04:22;101722.94;;;24.12;38.65
77263;BME280;66373;52.334;4.806;2023-06-14T08:06:50;101736.91;;;24.14;39.46
77263;BME280;66373;52.334;4.806;2023-06-14T08:09:19;101703.16;;;24.00;38.79
77263;BME280;66373;52.334;4.806;2023-06-14T08:11:46;101735.06;;;24.16;38.93
77263;BME280;66373;52.334;4.806;2023-06-14T08:14:13;101738.47;;;24.18;38.30
77263;BME280;66373;52.334;4.806;2023-06-14T08:16:42;101729.28;;;24.05;38.50
77263;BME280;66373;52.334;4.806;2023-06-14T08:19:09;101712.16;;;24.19;38.70
77263;BME280;66373;52.334;4.806;2023-06-14T08:21:38;101738.22;;;24.27;38.46
77263;BME280;66373;52.334;4.806;2023-06-14T08:24:06;101739.56;;;24.40;38.31
77263;BME280;66373;52.334;4.806;2023-06-14T08:26:33;101743.19;;;24.36;38.39
77263;BME280;66373;52.334;4.806;2023-06-14T08:29:02;101724.28;;;24.25;38.04
77263;BME280;66373;52.334;4.806;2023-06-14T08:31:29;101715.19;;;24.35;38.16
77263;BME280;66373;52.334;4.806;2023-06-14T08:33:59;101730.16;;;24.33;38.54
77263;BME280;66373;52.334;4.806;2023-06-14T08:36:26;101715.22;;;24.33;38.45
77263;BME280;66373;52.334;4.806;2023-06-14T08:38:53;101690.59;;;24.36;38.41
77263;BME280;66373;52.334;4.806;2023-06-14T08:41:22;101726.56;;;24.60;37.74
77263;BME280;66373;52.334;4.806;2023-06-14T08:43:50;101728.13;;;24.66;37.92
77263;BME280;66373;52.334;4.806;2023-06-14T08:46:18;101722.44;;;24.53;38.16
77263;BME280;66373;52.334;4.806;2023-06-14T08:48:49;101700.84;;;24.44;38.14
77263;BME280;66373;52.334;4.806;2023-06-14T08:51:19;101724.84;;;24.59;38.07
77263;BME280;66373;52.334;4.806;2023-06-14T08:53:52;101732.31;;;24.72;38.14
77263;BME280;66373;52.334;4.806;2023-06-14T08:56:25;101716.25;;;24.54;37.69
77263;BME280;66373;52.334;4.806;2023-06-14T08:58:53;101720.19;;;24.67;38.36
77263;BME280;66373;52.334;4.806;2023-06-14T09:01:20;101727.75;;;24.77;37.84
77263;BME280;66373;52.334;4.806;2023-06-14T09:03:48;101732.25;;;24.73;37.34
77263;BME280;66373;52.334;4.806;2023-06-14T09:06:17;101740.00;;;24.78;37.58
77263;BME280;66373;52.334;4.806;2023-06-14T09:08:46;101739.13;;;24.77;37.90
77263;BME280;66373;52.334;4.806;2023-06-14T09:11:16;101734.94;;;24.72;37.67
77263;BME280;66373;52.334;4.806;2023-06-14T09:13:45;101743.53;;;24.77;37.33
77263;BME280;66373;52.334;4.806;2023-06-14T09:16:12;101749.75;;;24.74;37.68
77263;BME280;66373;52.334;4.806;2023-06-14T09:18:42;101729.63;;;24.73;37.34
77263;BME280;66373;52.334;4.806;2023-06-14T09:21:11;101719.44;;;24.64;37.19
77263;BME280;66373;52.334;4.806;2023-06-14T09:23:41;101741.00;;;24.74;37.39
77263;BME280;66373;52.334;4.806;2023-06-14T09:26:10;101706.38;;;24.61;37.49
77263;BME280;66373;52.334;4.806;2023-06-14T09:28:41;101747.06;;;24.76;36.14
77263;BME280;66373;52.334;4.806;2023-06-14T09:31:10;101743.44;;;24.80;36.96
77263;BME280;66373;52.334;4.806;2023-06-14T09:33:37;101742.91;;;24.95;37.04
77263;BME280;66373;52.334;4.806;2023-06-14T09:36:10;101740.88;;;25.03;36.91
77263;BME280;66373;52.334;4.806;2023-06-14T09:38:41;101686.09;;;24.64;35.36
77263;BME280;66373;52.334;4.806;2023-06-14T09:41:09;101716.41;;;24.75;36.09
77263;BME280;66373;52.334;4.806;2023-06-14T09:43:36;101700.06;;;24.66;35.41
77263;BME280;66373;52.334;4.806;2023-06-14T09:46:05;101746.56;;;24.91;35.46
77263;BME280;66373;52.334;4.806;2023-06-14T09:48:33;101739.03;;;25.05;35.55
77263;BME280;66373;52.334;4.806;2023-06-14T09:51:01;101732.88;;;25.06;35.86
77263;BME280;66373;52.334;4.806;2023-06-14T09:53:30;101749.56;;;25.05;35.07
77263;BME280;66373;52.334;4.806;2023-06-14T09:56:02;101753.00;;;25.07;35.56
77263;BME280;66373;52.334;4.806;2023-06-14T09:58:34;101730.34;;;25.03;34.98
77263;BME280;66373;52.334;4.806;2023-06-14T10:01:08;101753.66;;;25.14;35.80
77263;BME280;66373;52.334;4.806;2023-06-14T10:03:40;101747.31;;;25.19;34.26
77263;BME280;66373;52.334;4.806;2023-06-14T10:06:09;101707.78;;;24.96;35.04
77263;BME280;66373;52.334;4.806;2023-06-14T10:08:37;101678.34;;;24.85;34.90
77263;BME280;66373;52.334;4.806;2023-06-14T10:11:06;101722.91;;;25.14;34.70
77263;BME280;66373;52.334;4.806;2023-06-14T10:13:34;101752.56;;;25.19;34.34
77263;BME280;66373;52.334;4.806;2023-06-14T10:16:09;101701.88;;;24.89;34.50
77263;BME280;66373;52.334;4.806;2023-06-14T10:18:42;101747.22;;;25.21;34.97
77263;BME280;66373;52.334;4.806;2023-06-14T10:21:18;101748.66;;;25.29;35.64
77263;BME280;66373;52.334;4.806;2023-06-14T10:23:49;101743.50;;;25.26;35.33
77263;BME280;66373;52.334;4.806;2023-06-14T10:26:23;101743.06;;;25.39;35.05
77263;BME280;66373;52.334;4.806;2023-06-14T10:28:58;101741.22;;;25.41;35.16
77263;BME280;66373;52.334;4.806;2023-06-14T10:31:40;101738.72;;;25.38;35.22
77263;BME280;66373;52.334;4.806;2023-06-14T10:34:08;101738.34;;;25.47;35.57
77263;BME280;66373;52.334;4.806;2023-06-14T10:36:37;101727.50;;;25.32;34.59
77263;BME280;66373;52.334;4.806;2023-06-14T10:39:07;101750.06;;;25.40;34.85
77263;BME280;66373;52.334;4.806;2023-06-14T10:41:37;101743.63;;;25.47;35.15
77263;BME280;66373;52.334;4.806;2023-06-14T10:44:32;101744.34;;;25.74;35.26
77263;BME280;66373;52.334;4.806;2023-06-14T10:47:00;101741.94;;;25.69;34.99
77263;BME280;66373;52.334;4.806;2023-06-14T10:49:37;101737.06;;;25.80;34.79
77263;BME280;66373;52.334;4.806;2023-06-14T10:52:07;101749.16;;;26.08;35.00
77263;BME280;66373;52.334;4.806;2023-06-14T10:55:06;101742.78;;;25.91;34.91
77263;BME280;66373;52.334;4.806;2023-06-14T10:57:39;101743.63;;;26.14;34.83
77263;BME280;66373;52.334;4.806;2023-06-14T11:00:08;101753.25;;;26.15;34.31
77263;BME280;66373;52.334;4.806;2023-06-14T11:05:58;101722.53;;;26.14;34.55
77263;BME280;66373;52.334;4.806;2023-06-14T11:08:59;101736.28;;;26.22;34.49
77263;BME280;66373;52.334;4.806;2023-06-14T11:11:32;101718.25;;;26.11;34.93
77263;BME280;66373;52.334;4.806;2023-06-14T11:14:02;101742.91;;;26.32;34.84
77263;BME280;66373;52.334;4.806;2023-06-14T11:16:29;101743.00;;;26.29;34.88
77263;BME280;66373;52.334;4.806;2023-06-14T11:19:00;101745.97;;;26.43;34.61
77263;BME280;66373;52.334;4.806;2023-06-14T11:21:28;101748.97;;;26.54;34.93
77263;BME280;66373;52.334;4.806;2023-06-14T11:23:57;101741.47;;;26.45;35.01
77263;BME280;66373;52.334;4.806;2023-06-14T11:26:24;101738.91;;;26.44;35.32
77263;BME280;66373;52.334;4.806;2023-06-14T11:28:55;101733.03;;;26.57;34.46
77263;BME280;66373;52.334;4.806;2023-06-14T11:31:25;101689.44;;;26.27;34.72
77263;BME280;66373;52.334;4.806;2023-06-14T11:33:54;101743.06;;;26.49;34.59
77263;BME280;66373;52.334;4.806;2023-06-14T11:36:22;101739.28;;;26.55;35.09
77263;BME280;66373;52.334;4.806;2023-06-14T11:38:49;101739.88;;;26.61;35.21
77263;BME280;66373;52.334;4.806;2023-06-14T11:41:17;101729.59;;;26.55;34.50
77263;BME280;66373;52.334;4.806;2023-06-14T11:43:44;101733.69;;;26.62;34.66
77263;BME280;66373;52.334;4.806;2023-06-14T11:46:14;101731.66;;;26.69;35.05
77263;BME280;66373;52.334;4.806;2023-06-14T11:48:44;101736.06;;;26.68;34.77
77263;BME280;66373;52.334;4.806;2023-06-14T11:51:11;101714.50;;;26.59;34.80
77263;BME280;66373;52.334;4.806;2023-06-14T11:53:39;101703.41;;;26.51;34.83
77263;BME280;66373;52.334;4.806;2023-06-14T11:56:07;101704.59;;;26.44;34.95
77263;BME280;66373;52.334;4.806;2023-06-14T11:58:34;101675.91;;;26.36;35.03
77263;BME280;66373;52.334;4.806;2023-06-14T12:01:03;101737.22;;;26.82;34.04
77263;BME280;66373;52.334;4.806;2023-06-14T12:03:30;101735.31;;;26.85;34.70
77263;BME280;66373;52.334;4.806;2023-06-14T12:06:07;101732.47;;;26.90;34.67
77263;BME280;66373;52.334;4.806;2023-06-14T12:08:35;101732.88;;;26.81;34.82
77263;BME280;66373;52.334;4.806;2023-06-14T12:11:05;101717.75;;;26.84;34.67
77263;BME280;66373;52.334;4.806;2023-06-14T12:13:37;101729.25;;;26.83;34.63
77263;BME280;66373;52.334;4.806;2023-06-14T12:16:04;101714.69;;;26.75;35.14
77263;BME280;66373;52.334;4.806;2023-06-14T12:18:33;101734.03;;;26.95;34.79
77263;BME280;66373;52.334;4.806;2023-06-14T12:21:02;101734.75;;;26.99;35.01
77263;BME280;66373;52.334;4.806;2023-06-14T12:23:42;101733.28;;;26.92;34.96
77263;BME280;66373;52.334;4.806;2023-06-14T12:26:12;101734.13;;;26.92;34.58
77263;BME280;66373;52.334;4.806;2023-06-14T12:28:40;101728.97;;;26.89;34.71
77263;BME280;66373;52.334;4.806;2023-06-14T12:31:08;101736.69;;;26.95;34.98
77263;BME280;66373;52.334;4.806;2023-06-14T12:33:35;101731.44;;;26.94;33.82
77263;BME280;66373;52.334;4.806;2023-06-14T12:36:04;101732.47;;;26.90;34.40
77263;BME280;66373;52.334;4.806;2023-06-14T12:38:32;101736.72;;;26.94;34.44
77263;BME280;66373;52.334;4.806;2023-06-14T12:41:01;101727.28;;;26.88;34.56
77263;BME280;66373;52.334;4.806;2023-06-14T12:43:28;101735.00;;;26.93;34.93
77263;BME280;66373;52.334;4.806;2023-06-14T12:45:55;101750.72;;;26.96;34.45
77263;BME280;66373;52.334;4.806;2023-06-14T12:48:22;101726.28;;;26.91;34.29
77263;BME280;66373;52.334;4.806;2023-06-14T12:50:49;101739.13;;;27.00;34.11
77263;BME280;66373;52.334;4.806;2023-06-14T12:53:16;101738.47;;;26.95;33.69
77263;BME280;66373;52.334;4.806;2023-06-14T12:55:47;101738.56;;;26.92;33.16
77263;BME280;66373;52.334;4.806;2023-06-14T12:58:15;101693.97;;;26.65;33.73
77263;BME280;66373;52.334;4.806;2023-06-14T13:00:45;101713.53;;;26.80;33.64
77263;BME280;66373;52.334;4.806;2023-06-14T13:03:12;101696.28;;;26.73;34.07
77263;BME280;66373;52.334;4.806;2023-06-14T13:05:40;101735.44;;;27.02;33.79